createdAt,value
2018-12-30T00:02:24.105Z,23.03
2018-12-30T00:04:52.990Z,20.97
2018-12-30T00:07:21.781Z,16.43
2018-12-30T00:09:50.349Z,20.90
2018-12-30T00:12:19.112Z,22.60
2018-12-30T00:14:47.714Z,19.27
2018-12-30T00:17:16.277Z,18.93
2018-12-30T00:19:44.877Z,17.27
2018-12-30T00:22:13.450Z,22.77
2018-12-30T00:24:42.046Z,26.07
2018-12-30T00:27:10.602Z,20.57
2018-12-30T00:29:39.189Z,27.50
2018-12-30T00:32:07.754Z,26.67
2018-12-30T00:34:36.354Z,22.17
2018-12-30T00:37:04.933Z,30.00
2018-12-30T00:39:33.486Z,18.80
2018-12-30T00:42:02.137Z,16.60
2018-12-30T00:44:30.744Z,15.47
2018-12-30T00:46:59.305Z,14.17
2018-12-30T00:49:28.079Z,19.47
2018-12-30T00:51:56.662Z,13.33
2018-12-30T00:54:25.234Z,16.73
2018-12-30T00:56:53.808Z,11.77
2018-12-30T00:59:22.399Z,16.23
2018-12-30T01:01:51.045Z,22.63
2018-12-30T01:04:19.605Z,13.97
2018-12-30T01:06:48.181Z,12.60
2018-12-30T01:09:16.813Z,10.77
2018-12-30T01:11:45.398Z,23.97
2018-12-30T01:14:14.030Z,13.53
2018-12-30T01:16:42.609Z,17.50
2018-12-30T01:19:11.186Z,14.10
2018-12-30T01:21:39.774Z,14.87
2018-12-30T01:24:08.364Z,17.77
2018-12-30T01:26:36.932Z,13.50
2018-12-30T01:29:05.515Z,14.27
2018-12-30T01:31:34.394Z,16.57
2018-12-30T01:34:02.980Z,23.10
2018-12-30T01:36:31.555Z,14.17
2018-12-30T01:39:00.105Z,15.13
2018-12-30T01:41:28.676Z,17.03
2018-12-30T01:43:57.259Z,17.17
2018-12-30T01:46:25.817Z,20.23
2018-12-30T01:48:54.405Z,20.50
2018-12-30T01:51:23.148Z,16.53
2018-12-30T01:53:51.715Z,12.37
2018-12-30T01:56:20.276Z,15.53
2018-12-30T01:58:49.074Z,10.53
2018-12-30T02:01:17.638Z,19.80
2018-12-30T02:03:46.227Z,12.13
2018-12-30T02:06:14.802Z,14.70
2018-12-30T02:08:43.381Z,17.53
2018-12-30T02:11:12.235Z,9.60
2018-12-30T02:13:40.839Z,15.20
2018-12-30T02:16:09.394Z,14.73
2018-12-30T02:18:37.974Z,11.83
2018-12-30T02:21:06.539Z,15.60
2018-12-30T02:23:35.126Z,14.47
2018-12-30T02:26:03.696Z,10.20
2018-12-30T02:28:32.281Z,15.03
2018-12-30T02:31:00.859Z,14.73
2018-12-30T02:33:29.444Z,10.00
2018-12-30T02:35:58.010Z,15.80
2018-12-30T02:38:26.595Z,15.70
2018-12-30T02:40:55.177Z,14.70
2018-12-30T02:43:23.762Z,10.30
2018-12-30T02:45:52.326Z,12.83
2018-12-30T02:48:20.908Z,9.17
2018-12-30T02:50:49.490Z,11.93
2018-12-30T02:53:18.070Z,11.30
2018-12-30T02:55:46.641Z,15.03
2018-12-30T02:58:15.222Z,15.07
2018-12-30T03:00:43.806Z,21.13
2018-12-30T03:03:12.493Z,14.60
2018-12-30T03:05:41.073Z,19.20
2018-12-30T03:08:09.629Z,21.20
2018-12-30T03:10:38.215Z,20.13
2018-12-30T03:13:06.782Z,12.00
2018-12-30T03:15:35.356Z,20.23
2018-12-30T03:18:03.914Z,14.80
2018-12-30T03:20:32.567Z,15.97
2018-12-30T03:23:01.128Z,19.57
2018-12-30T03:25:29.724Z,14.17
2018-12-30T03:27:58.265Z,12.23
2018-12-30T03:30:26.783Z,12.87
2018-12-30T03:32:55.360Z,15.57
2018-12-30T03:35:23.942Z,20.13
2018-12-30T03:37:52.506Z,14.77
2018-12-30T03:40:21.033Z,16.33
2018-12-30T03:42:49.536Z,19.47
2018-12-30T03:45:18.138Z,11.77
2018-12-30T03:47:46.698Z,11.03
2018-12-30T03:50:15.209Z,15.37
2018-12-30T03:52:43.837Z,14.80
2018-12-30T03:55:12.435Z,15.77
2018-12-30T03:57:40.990Z,9.70
2018-12-30T04:00:09.794Z,19.30
2018-12-30T04:02:38.372Z,10.90
2018-12-30T04:05:06.938Z,19.47
2018-12-30T04:07:35.522Z,15.63
2018-12-30T04:10:04.913Z,16.07
2018-12-30T04:12:33.427Z,16.60
2018-12-30T04:15:01.992Z,19.17
2018-12-30T04:17:30.581Z,11.57
2018-12-30T04:19:59.147Z,22.87
2018-12-30T04:22:27.719Z,9.93
2018-12-30T04:24:56.279Z,18.97
2018-12-30T04:27:24.937Z,24.30
2018-12-30T04:29:53.514Z,14.03
2018-12-30T04:32:22.098Z,13.13
2018-12-30T04:34:50.659Z,15.27
2018-12-30T04:37:19.242Z,18.00
2018-12-30T04:39:47.810Z,17.13
2018-12-30T04:42:16.398Z,16.87
2018-12-30T04:44:44.957Z,15.73
2018-12-30T04:47:13.532Z,13.20
2018-12-30T04:49:42.034Z,22.80
2018-12-30T04:52:10.556Z,13.03
2018-12-30T04:54:39.140Z,14.63
2018-12-30T04:57:07.717Z,15.50
2018-12-30T04:59:36.274Z,11.87
2018-12-30T05:02:04.866Z,20.00
2018-12-30T05:04:33.348Z,22.23
2018-12-30T05:07:01.941Z,22.23
2018-12-30T05:09:30.501Z,15.90
2018-12-30T05:11:59.090Z,17.70
2018-12-30T05:14:27.654Z,23.10
2018-12-30T05:16:56.149Z,23.30
2018-12-30T05:19:24.675Z,18.37
2018-12-30T05:21:53.239Z,14.17
2018-12-30T05:24:21.817Z,20.57
2018-12-30T05:26:50.381Z,13.10
2018-12-30T05:29:18.902Z,10.93
2018-12-30T05:31:47.470Z,22.07
2018-12-30T05:34:16.052Z,18.70
2018-12-30T05:36:44.610Z,20.47
2018-12-30T05:39:13.223Z,21.17
2018-12-30T05:41:41.789Z,14.40
2018-12-30T05:44:10.369Z,14.20
2018-12-30T05:46:38.998Z,17.40
2018-12-30T05:49:07.593Z,16.87
2018-12-30T05:51:36.147Z,19.43
2018-12-30T05:54:04.731Z,16.83
2018-12-30T05:56:33.301Z,12.43
2018-12-30T05:59:01.886Z,21.97
2018-12-30T06:01:30.509Z,15.37
2018-12-30T06:03:59.017Z,16.40
2018-12-30T06:06:27.577Z,13.57
2018-12-30T06:08:56.163Z,22.53
2018-12-30T06:11:24.716Z,16.47
2018-12-30T06:13:53.225Z,17.40
2018-12-30T06:16:21.717Z,32.00
2018-12-30T06:18:50.299Z,19.57
2018-12-30T06:21:18.886Z,13.47
2018-12-30T06:23:47.465Z,18.87
2018-12-30T06:26:16.021Z,18.07
2018-12-30T06:28:44.532Z,18.27
2018-12-30T06:31:13.023Z,17.47
2018-12-30T06:33:41.605Z,17.97
2018-12-30T06:36:10.186Z,20.83
2018-12-30T06:38:38.673Z,20.80
2018-12-30T06:41:07.177Z,14.40
2018-12-30T06:43:35.733Z,13.23
2018-12-30T06:46:04.243Z,14.80
2018-12-30T06:48:32.800Z,16.67
2018-12-30T06:51:01.314Z,18.07
2018-12-30T06:53:29.878Z,16.90
2018-12-30T06:55:58.457Z,14.83
2018-12-30T06:58:26.958Z,18.33
2018-12-30T07:00:55.540Z,16.70
2018-12-30T07:03:24.104Z,23.60
2018-12-30T07:05:52.685Z,19.10
2018-12-30T07:08:21.245Z,14.63
2018-12-30T07:10:49.837Z,24.23
2018-12-30T07:13:18.393Z,23.73
2018-12-30T07:15:46.973Z,15.63
2018-12-30T07:18:15.540Z,22.17
2018-12-30T07:20:44.147Z,15.53
2018-12-30T07:23:12.713Z,19.20
2018-12-30T07:25:41.303Z,21.20
2018-12-30T07:28:09.958Z,19.23
2018-12-30T07:30:38.518Z,16.67
2018-12-30T07:33:07.026Z,23.93
2018-12-30T07:35:35.590Z,20.20
2018-12-30T07:38:04.173Z,11.87
2018-12-30T07:40:32.742Z,19.23
2018-12-30T07:43:01.328Z,19.23
2018-12-30T07:45:29.885Z,20.17
2018-12-30T07:47:58.536Z,28.03
2018-12-30T07:50:27.093Z,19.67
2018-12-30T07:52:55.604Z,23.33
2018-12-30T07:55:24.158Z,22.47
2018-12-30T07:57:52.681Z,22.90
2018-12-30T08:00:21.178Z,23.07
2018-12-30T08:02:49.789Z,27.80
2018-12-30T08:05:18.344Z,23.37
2018-12-30T08:07:46.856Z,26.90
2018-12-30T08:10:15.426Z,28.70
2018-12-30T08:12:44.010Z,22.70
2018-12-30T08:15:12.581Z,29.00
2018-12-30T08:17:42.715Z,19.90
2018-12-30T08:20:11.274Z,27.40
2018-12-30T08:22:39.853Z,21.83
2018-12-30T08:25:08.414Z,18.73
2018-12-30T08:27:36.971Z,24.97
2018-12-30T08:30:06.581Z,22.83
2018-12-30T08:32:35.070Z,22.53
2018-12-30T08:35:03.661Z,22.23
2018-12-30T08:37:32.181Z,23.67
2018-12-30T08:40:00.759Z,15.73
2018-12-30T08:42:29.320Z,18.27
2018-12-30T08:44:57.838Z,24.90
2018-12-30T08:47:26.390Z,19.90
2018-12-30T08:49:54.994Z,20.43
2018-12-30T08:52:23.558Z,19.37
2018-12-30T08:54:52.138Z,20.33
2018-12-30T08:57:20.701Z,21.47
2018-12-30T08:59:49.311Z,21.90
2018-12-30T09:02:17.852Z,19.80
2018-12-30T09:04:46.369Z,20.33
2018-12-30T09:07:14.921Z,19.17
2018-12-30T09:09:43.622Z,20.23
2018-12-30T09:12:12.178Z,17.97
2018-12-30T09:14:40.698Z,21.27
2018-12-30T09:17:09.256Z,24.80
2018-12-30T09:19:37.766Z,20.27
2018-12-30T09:22:06.349Z,25.23
2018-12-30T09:24:34.939Z,23.40
2018-12-30T09:27:03.493Z,22.73
2018-12-30T09:29:31.979Z,21.97
2018-12-30T09:32:00.644Z,15.33
2018-12-30T09:34:29.202Z,16.13
2018-12-30T09:36:57.785Z,21.83
2018-12-30T09:39:26.363Z,15.53
2018-12-30T09:41:54.869Z,16.70
2018-12-30T09:44:23.430Z,16.80
2018-12-30T09:46:52.078Z,15.37
2018-12-30T09:49:20.567Z,14.27
2018-12-30T09:51:49.178Z,24.33
2018-12-30T09:54:17.675Z,18.03
2018-12-30T09:56:46.321Z,18.20
2018-12-30T09:59:14.802Z,16.70
2018-12-30T10:01:43.454Z,15.67
2018-12-30T10:04:11.950Z,15.67
2018-12-30T10:06:40.532Z,13.53
2018-12-30T10:09:09.089Z,19.30
2018-12-30T10:11:37.894Z,20.60
2018-12-30T10:14:06.458Z,12.57
2018-12-30T10:16:34.969Z,18.23
2018-12-30T10:19:03.564Z,13.30
2018-12-30T10:21:32.219Z,13.53
2018-12-30T10:24:00.782Z,15.13
2018-12-30T10:26:29.363Z,12.03
2018-12-30T10:28:57.937Z,19.93
2018-12-30T10:31:26.542Z,22.57
2018-12-30T10:33:55.107Z,22.67
2018-12-30T10:36:23.685Z,17.30
2018-12-30T10:38:52.261Z,11.47
2018-12-30T10:41:20.749Z,11.70
2018-12-30T10:43:49.417Z,14.10
2018-12-30T10:46:17.985Z,12.80
2018-12-30T10:48:46.581Z,16.77
2018-12-30T10:51:15.162Z,12.83
2018-12-30T10:53:43.741Z,13.77
2018-12-30T10:56:12.225Z,15.17
2018-12-30T10:58:40.813Z,17.10
2018-12-30T11:01:09.377Z,13.60
2018-12-30T11:03:38.057Z,16.17
2018-12-30T11:06:06.602Z,12.80
2018-12-30T11:08:35.188Z,12.57
2018-12-30T11:11:03.822Z,9.60
2018-12-30T11:13:32.485Z,16.47
2018-12-30T11:16:01.050Z,12.13
2018-12-30T11:18:29.701Z,16.70
2018-12-30T11:20:58.265Z,12.27
2018-12-30T11:23:26.773Z,14.53
2018-12-30T11:25:55.368Z,21.57
2018-12-30T11:28:23.934Z,14.30
2018-12-30T11:30:52.584Z,17.20
2018-12-30T11:33:21.091Z,11.90
2018-12-30T11:35:49.660Z,15.37
2018-12-30T11:38:18.150Z,17.63
2018-12-30T11:40:46.737Z,15.97
2018-12-30T11:43:15.221Z,11.33
2018-12-30T11:45:43.899Z,11.07
2018-12-30T11:48:12.539Z,14.97
2018-12-30T11:50:41.138Z,11.03
2018-12-30T11:53:09.701Z,10.30
2018-12-30T11:55:38.286Z,13.00
2018-12-30T11:58:06.957Z,12.03
2018-12-30T12:00:35.601Z,12.70
2018-12-30T12:03:04.998Z,11.27
2018-12-30T12:05:33.603Z,12.53
2018-12-30T12:08:02.174Z,9.43
2018-12-30T12:10:30.762Z,8.57
2018-12-30T12:12:59.317Z,12.13
2018-12-30T12:15:27.965Z,14.57
2018-12-30T12:17:56.517Z,12.07
2018-12-30T12:20:25.035Z,10.63
2018-12-30T12:22:53.613Z,10.63
2018-12-30T12:25:22.169Z,13.27
2018-12-30T12:27:50.750Z,14.77
2018-12-30T12:30:19.247Z,12.63
2018-12-30T12:32:47.817Z,10.40
2018-12-30T12:35:16.447Z,13.17
2018-12-30T12:37:45.022Z,8.87
2018-12-30T12:40:13.509Z,7.70
2018-12-30T12:42:42.098Z,10.60
2018-12-30T12:45:10.657Z,8.63
2018-12-30T12:47:39.621Z,10.10
2018-12-30T12:50:09.250Z,7.90
2018-12-30T12:52:37.764Z,9.83
2018-12-30T12:55:06.342Z,10.00
2018-12-30T12:57:34.918Z,11.40
2018-12-30T13:00:04.045Z,13.80
2018-12-30T13:02:32.567Z,13.90
2018-12-30T13:05:01.127Z,11.40
2018-12-30T13:07:29.708Z,10.07
2018-12-30T13:09:58.266Z,12.60
2018-12-30T13:12:26.805Z,11.90
2018-12-30T13:14:55.362Z,8.97
2018-12-30T13:17:23.948Z,9.50
2018-12-30T13:19:52.583Z,15.33
2018-12-30T13:22:21.157Z,12.83
2018-12-30T13:24:49.737Z,14.00
2018-12-30T13:27:18.224Z,11.07
2018-12-30T13:29:46.814Z,9.20
2018-12-30T13:32:15.408Z,13.00
2018-12-30T13:34:43.978Z,11.27
2018-12-30T13:37:12.616Z,7.13
2018-12-30T13:39:41.125Z,7.23
2018-12-30T13:42:09.767Z,11.87
2018-12-30T13:44:38.326Z,11.80
2018-12-30T13:47:06.817Z,10.43
2018-12-30T13:49:35.326Z,13.40
2018-12-30T13:52:04.061Z,14.50
2018-12-30T13:54:32.642Z,12.50
2018-12-30T13:57:01.279Z,15.57
2018-12-30T13:59:29.875Z,13.53
2018-12-30T14:02:02.131Z,8.30
2018-12-30T14:04:32.668Z,13.80
2018-12-30T14:07:04.271Z,11.50
2018-12-30T14:09:32.904Z,12.03
2018-12-30T14:12:01.465Z,8.87
2018-12-30T14:14:30.129Z,10.60
2018-12-30T14:16:58.692Z,12.63
2018-12-30T14:19:27.246Z,8.03
2018-12-30T14:21:55.753Z,9.20
2018-12-30T14:24:24.310Z,13.60
2018-12-30T14:26:59.512Z,13.30
2018-12-30T14:29:23.114Z,14.80
2018-12-30T14:31:51.693Z,11.63
2018-12-30T14:34:20.323Z,17.43
2018-12-30T14:36:48.914Z,19.23
2018-12-30T14:39:17.401Z,20.77
2018-12-30T14:41:45.920Z,18.73
2018-12-30T14:44:14.418Z,14.30
2018-12-30T14:46:42.994Z,16.10
2018-12-30T14:49:11.553Z,20.20
2018-12-30T14:51:40.057Z,16.73
2018-12-30T14:54:08.540Z,15.07
2018-12-30T14:56:37.126Z,11.17
2018-12-30T14:59:05.705Z,13.47
2018-12-30T15:01:34.286Z,8.70
2018-12-30T15:04:02.845Z,13.17
2018-12-30T15:06:31.356Z,12.27
2018-12-30T15:08:59.938Z,12.63
2018-12-30T15:11:28.534Z,10.70
2018-12-30T15:13:57.109Z,13.33
2018-12-30T15:16:25.689Z,12.80
2018-12-30T15:18:54.185Z,11.33
2018-12-30T15:21:22.769Z,9.47
2018-12-30T15:23:51.341Z,11.47
2018-12-30T15:26:19.925Z,10.37
2018-12-30T15:28:48.406Z,9.10
2018-12-30T15:31:16.915Z,14.87
2018-12-30T15:33:45.475Z,13.90
2018-12-30T15:36:14.069Z,10.47
2018-12-30T15:38:42.549Z,14.87
2018-12-30T15:41:11.137Z,10.90
2018-12-30T15:43:39.662Z,13.77
2018-12-30T15:46:08.218Z,12.80
2018-12-30T15:48:36.939Z,12.47
2018-12-30T15:51:05.514Z,10.37
2018-12-30T15:53:34.108Z,11.70
2018-12-30T15:56:02.674Z,11.33
2018-12-30T15:58:31.201Z,15.53
2018-12-30T16:01:01.350Z,17.27
2018-12-30T16:03:30.072Z,20.93
2018-12-30T16:05:58.785Z,23.43
2018-12-30T16:08:27.374Z,19.80
2018-12-30T16:10:55.949Z,23.50
2018-12-30T16:13:24.470Z,19.37
2018-12-30T16:15:55.084Z,24.60
2018-12-30T16:18:23.710Z,25.17
2018-12-30T16:20:52.237Z,20.97
2018-12-30T16:23:20.965Z,18.57
2018-12-30T16:25:49.453Z,23.77
2018-12-30T16:28:17.970Z,27.17
2018-12-30T16:30:46.773Z,31.20
2018-12-30T16:33:15.306Z,25.63
2018-12-30T16:35:43.886Z,23.43
2018-12-30T16:38:12.486Z,26.07
2018-12-30T16:40:40.985Z,17.03
2018-12-30T16:43:09.569Z,25.63
2018-12-30T16:45:38.142Z,32.33
2018-12-30T16:48:06.715Z,22.27
2018-12-30T16:50:35.308Z,76.90
2018-12-30T16:53:03.945Z,21.67
2018-12-30T16:55:34.939Z,18.90
2018-12-30T16:58:02.670Z,15.33
2018-12-30T17:00:31.256Z,25.87
2018-12-30T17:02:59.869Z,17.23
2018-12-30T17:05:28.432Z,16.33
2018-12-30T17:07:56.998Z,25.33
2018-12-30T17:10:25.656Z,15.87
2018-12-30T17:12:54.242Z,16.17
2018-12-30T17:15:22.755Z,33.33
2018-12-30T17:17:51.318Z,22.60
2018-12-30T17:20:19.853Z,18.63
2018-12-30T17:22:48.455Z,21.03
2018-12-30T17:25:17.031Z,17.40
2018-12-30T17:27:45.601Z,21.17
2018-12-30T17:30:14.261Z,33.53
2018-12-30T17:32:42.891Z,32.50
2018-12-30T17:35:11.393Z,24.17
2018-12-30T17:37:39.889Z,24.83
2018-12-30T17:40:08.456Z,27.50
2018-12-30T17:42:37.057Z,24.20
2018-12-30T17:45:06.958Z,24.47
2018-12-30T17:47:35.713Z,32.10
2018-12-30T17:50:05.914Z,25.80
2018-12-30T17:52:34.509Z,26.10
2018-12-30T17:55:02.992Z,29.07
2018-12-30T17:57:31.513Z,34.87
2018-12-30T18:00:00.004Z,32.40
2018-12-30T18:02:28.581Z,29.33
2018-12-30T18:04:57.068Z,37.53
2018-12-30T18:07:25.573Z,31.70
2018-12-30T18:09:54.066Z,32.30
2018-12-30T18:12:22.661Z,34.97
2018-12-30T18:14:51.324Z,39.57
2018-12-30T18:17:19.849Z,36.77
2018-12-30T18:19:48.414Z,36.33
2018-12-30T18:22:17.001Z,33.60
2018-12-30T18:24:45.577Z,35.43
2018-12-30T18:27:14.159Z,34.83
2018-12-30T18:29:42.723Z,35.90
2018-12-30T18:32:11.308Z,37.47
2018-12-30T18:34:39.882Z,36.23
2018-12-30T18:37:08.531Z,40.87
2018-12-30T18:39:37.103Z,40.47
2018-12-30T18:42:05.683Z,41.23
2018-12-30T18:44:34.194Z,39.70
2018-12-30T18:47:02.758Z,40.73
2018-12-30T18:49:31.314Z,40.87
2018-12-30T18:51:59.839Z,43.73
2018-12-30T18:54:28.426Z,41.43
2018-12-30T18:56:56.930Z,40.73
2018-12-30T18:59:25.516Z,45.50
2018-12-30T19:01:54.151Z,55.77
2018-12-30T19:04:22.840Z,50.70
2018-12-30T19:06:51.409Z,52.50
2018-12-30T19:09:19.994Z,52.80
2018-12-30T19:11:48.562Z,48.87
2018-12-30T19:14:17.181Z,45.53
2018-12-30T19:16:45.678Z,42.07
2018-12-30T19:19:14.257Z,42.67
2018-12-30T19:21:42.745Z,44.77
2018-12-30T19:24:11.254Z,45.83
2018-12-30T19:26:39.742Z,40.20
2018-12-30T19:29:08.343Z,41.80
2018-12-30T19:31:36.924Z,43.77
2018-12-30T19:34:05.501Z,44.10
2018-12-30T19:36:34.061Z,44.83
2018-12-30T19:39:02.813Z,46.03
2018-12-30T19:41:31.308Z,45.33
2018-12-30T19:43:59.911Z,45.70
2018-12-30T19:46:28.461Z,47.33
2018-12-30T19:48:56.960Z,48.43
2018-12-30T19:51:25.542Z,45.47
2018-12-30T19:53:54.029Z,45.90
2018-12-30T19:56:22.546Z,47.33
2018-12-30T19:58:51.038Z,53.43
2018-12-30T20:01:19.624Z,48.13
2018-12-30T20:03:48.362Z,47.20
2018-12-30T20:06:16.957Z,48.53
2018-12-30T20:08:45.528Z,50.67
2018-12-30T20:11:14.033Z,49.30
2018-12-30T20:13:42.520Z,56.40
2018-12-30T20:16:11.037Z,53.23
2018-12-30T20:18:39.609Z,62.73
2018-12-30T20:21:08.215Z,84.63
2018-12-30T20:23:36.781Z,97.10
2018-12-30T20:26:05.361Z,96.73
2018-12-30T20:28:33.860Z,87.50
2018-12-30T20:31:02.373Z,81.73
2018-12-30T20:33:30.869Z,66.80
2018-12-30T20:35:59.409Z,60.23
2018-12-30T20:38:27.962Z,78.93
2018-12-30T20:40:56.545Z,73.40
2018-12-30T20:43:25.046Z,77.00
2018-12-30T20:45:53.545Z,73.33
2018-12-30T20:48:22.165Z,91.63
2018-12-30T20:50:50.718Z,84.00
2018-12-30T20:53:19.326Z,87.80
2018-12-30T20:55:47.891Z,83.50
2018-12-30T20:58:16.403Z,87.27
2018-12-30T21:00:44.970Z,68.17
2018-12-30T21:03:13.553Z,75.50
2018-12-30T21:05:42.074Z,75.80
2018-12-30T21:08:10.649Z,69.13
2018-12-30T21:10:39.223Z,71.37
2018-12-30T21:13:07.806Z,69.90
2018-12-30T21:15:38.339Z,76.30
2018-12-30T21:18:06.930Z,74.53
2018-12-30T21:20:35.503Z,79.50
2018-12-30T21:23:04.211Z,77.43
2018-12-30T21:25:32.778Z,78.33
2018-12-30T21:28:01.300Z,71.97
2018-12-30T21:30:29.904Z,72.87
2018-12-30T21:32:58.529Z,73.03
2018-12-30T21:35:27.145Z,69.17
2018-12-30T21:37:55.736Z,66.37
2018-12-30T21:40:25.087Z,73.93
2018-12-30T21:42:53.658Z,67.37
2018-12-30T21:45:22.240Z,64.53
2018-12-30T21:47:51.189Z,63.87
2018-12-30T21:50:20.083Z,66.87
2018-12-30T21:52:52.826Z,65.63
2018-12-30T21:55:21.419Z,68.73
2018-12-30T21:57:49.984Z,71.00
2018-12-30T22:00:18.699Z,64.27
2018-12-30T22:02:47.292Z,65.10
2018-12-30T22:05:15.898Z,63.77
2018-12-30T22:07:44.462Z,71.07
2018-12-30T22:10:17.188Z,70.83
2018-12-30T22:12:43.346Z,66.97
2018-12-30T22:15:11.926Z,66.63
2018-12-30T22:17:41.374Z,61.47
2018-12-30T22:20:10.405Z,60.80
2018-12-30T22:22:38.978Z,59.50
2018-12-30T22:25:07.574Z,59.43
2018-12-30T22:27:36.130Z,55.47
2018-12-30T22:30:05.593Z,61.47
2018-12-30T22:32:34.156Z,53.27
2018-12-30T22:35:02.645Z,52.83
2018-12-30T22:37:31.300Z,56.13
2018-12-30T22:39:59.794Z,49.53
2018-12-30T22:42:32.764Z,49.73
2018-12-30T22:45:02.349Z,51.40
2018-12-30T22:47:30.944Z,54.03
2018-12-30T22:49:59.530Z,48.30
2018-12-30T22:52:28.037Z,50.30
2018-12-30T22:54:56.540Z,45.47
2018-12-30T22:57:25.121Z,48.70
2018-12-30T22:59:53.694Z,46.27
2018-12-30T23:02:22.417Z,47.30
2018-12-30T23:04:55.468Z,45.43
2018-12-30T23:07:24.126Z,47.27
2018-12-30T23:09:52.704Z,48.10
2018-12-30T23:12:21.278Z,44.87
2018-12-30T23:14:49.767Z,44.17
2018-12-30T23:17:18.348Z,41.37
2018-12-30T23:19:46.846Z,40.73
2018-12-30T23:22:15.430Z,43.37
2018-12-30T23:24:43.917Z,42.00
2018-12-30T23:27:12.493Z,42.40
2018-12-30T23:29:41.009Z,39.10
2018-12-30T23:32:09.670Z,38.40
2018-12-30T23:34:38.233Z,39.10
2018-12-30T23:37:06.819Z,37.47
2018-12-30T23:39:35.404Z,39.47
2018-12-30T23:42:04.037Z,36.40
2018-12-30T23:44:32.558Z,37.40
2018-12-30T23:47:01.120Z,42.13
2018-12-30T23:49:29.729Z,36.07
2018-12-30T23:51:58.334Z,38.40
2018-12-30T23:54:26.926Z,36.17
2018-12-30T23:56:55.468Z,38.30
2018-12-30T23:59:24.050Z,37.87
